RYR23BW EBCI-LDZA
Flight info
| Callsign | RYR23BW |
|---|---|
| Flight time | 1h 25m |
| Altitude | 35000 |
| Route | RITAX M624 DIK M150 PITES DCT KRH DCT UTABA L607 MOMUK DCT UMVEG DCT GOLVA DCT MIRSO DCT PETOV |
| Aircraft | A320/M-SDE3FGHIRWY/LB1 |
Departure
| Time | 2026-04-29 19:24 |
|---|---|
| Airport | Brussels South Charleroi Airport (EBCI) |
Arrival
| Time | 2026-04-29 20:50 |
|---|---|
| Airport | Zagreb Franjo Tuđman International Airport (LDZA) |
| Time | Latitude | Longitude | Altitude | Speed | Heading |
|---|---|---|---|---|---|
| 2026-04-29 18:52 | 50.46840 | 4.46986 | 585 ft | 0 kts | 335° |
| 2026-04-29 19:12 | 50.46832 | 4.46991 | 585 ft | 4 kts | 335° |
| 2026-04-29 19:12 | 50.46810 | 4.47007 | 585 ft | 2 kts | 335° |
| 2026-04-29 19:12 | 50.46797 | 4.47018 | 584 ft | 4 kts | 302° |
| 2026-04-29 19:13 | 50.46799 | 4.47064 | 585 ft | 4 kts | 244° |
| 2026-04-29 19:13 | 50.46804 | 4.47079 | 585 ft | 1 kts | 245° |
| 2026-04-29 19:16 | 50.46803 | 4.47076 | 585 ft | 1 kts | 245° |
| 2026-04-29 19:17 | 50.46796 | 4.47052 | 585 ft | 4 kts | 246° |
| 2026-04-29 19:17 | 50.46783 | 4.47006 | 585 ft | 6 kts | 246° |
| 2026-04-29 19:17 | 50.46765 | 4.46944 | 585 ft | 7 kts | 245° |
| 2026-04-29 19:17 | 50.46745 | 4.46875 | 586 ft | 7 kts | 245° |
| 2026-04-29 19:18 | 50.46725 | 4.46806 | 587 ft | 7 kts | 244° |
| 2026-04-29 19:18 | 50.46704 | 4.46773 | 588 ft | 6 kts | 210° |
| 2026-04-29 19:18 | 50.46662 | 4.46784 | 590 ft | 5 kts | 154° |
| 2026-04-29 19:18 | 50.46628 | 4.46803 | 591 ft | 5 kts | 173° |
| 2026-04-29 19:19 | 50.46595 | 4.46765 | 591 ft | 8 kts | 244° |
| 2026-04-29 19:19 | 50.46567 | 4.46667 | 591 ft | 11 kts | 245° |
| 2026-04-29 19:19 | 50.46530 | 4.46540 | 590 ft | 15 kts | 245° |
| 2026-04-29 19:19 | 50.46481 | 4.46371 | 589 ft | 18 kts | 245° |
| 2026-04-29 19:20 | 50.46428 | 4.46189 | 591 ft | 19 kts | 245° |
| 2026-04-29 19:20 | 50.46373 | 4.46001 | 595 ft | 18 kts | 245° |
| 2026-04-29 19:20 | 50.46321 | 4.45825 | 597 ft | 18 kts | 245° |
| 2026-04-29 19:20 | 50.46268 | 4.45639 | 598 ft | 17 kts | 246° |
| 2026-04-29 19:21 | 50.46219 | 4.45471 | 599 ft | 18 kts | 245° |
| 2026-04-29 19:21 | 50.46165 | 4.45284 | 599 ft | 19 kts | 246° |
| 2026-04-29 19:21 | 50.46105 | 4.45077 | 596 ft | 23 kts | 245° |
| 2026-04-29 19:21 | 50.46037 | 4.44844 | 597 ft | 24 kts | 245° |
| 2026-04-29 19:22 | 50.45965 | 4.44595 | 599 ft | 25 kts | 245° |
| 2026-04-29 19:22 | 50.45873 | 4.44356 | 599 ft | 27 kts | 232° |
| 2026-04-29 19:22 | 50.45754 | 4.44119 | 595 ft | 27 kts | 232° |
| 2026-04-29 19:22 | 50.45667 | 4.43979 | 594 ft | 14 kts | 189° |
| 2026-04-29 19:23 | 50.45631 | 4.44071 | 594 ft | 9 kts | 64° |
| 2026-04-29 19:23 | 50.45635 | 4.44084 | 594 ft | 0 kts | 65° |
| 2026-04-29 19:23 | 50.45644 | 4.44115 | 594 ft | 11 kts | 65° |
| 2026-04-29 19:24 | 50.45776 | 4.44565 | 598 ft | 78 kts | 65° |
| 2026-04-29 19:24 | 50.46081 | 4.45614 | 593 ft | 131 kts | 65° |
| 2026-04-29 19:24 | 50.46520 | 4.47098 | 749 ft | 156 kts | 64° |
| 2026-04-29 19:24 | 50.47036 | 4.48544 | 1408 ft | 152 kts | 48° |
| 2026-04-29 19:25 | 50.47759 | 4.49755 | 1982 ft | 154 kts | 49° |
| 2026-04-29 19:25 | 50.48468 | 4.51028 | 2525 ft | 155 kts | 50° |
| 2026-04-29 19:25 | 50.49169 | 4.52323 | 3047 ft | 157 kts | 53° |
| 2026-04-29 19:25 | 50.49885 | 4.53645 | 3552 ft | 161 kts | 54° |
| 2026-04-29 19:26 | 50.50625 | 4.55015 | 3985 ft | 171 kts | 54° |
| 2026-04-29 19:26 | 50.51444 | 4.56540 | 4200 ft | 194 kts | 54° |
| 2026-04-29 19:26 | 50.52377 | 4.58272 | 4461 ft | 220 kts | 53° |
| 2026-04-29 19:26 | 50.53391 | 4.60226 | 4872 ft | 240 kts | 55° |
| 2026-04-29 19:27 | 50.54440 | 4.62339 | 5592 ft | 249 kts | 56° |
| 2026-04-29 19:27 | 50.55507 | 4.64509 | 6352 ft | 253 kts | 56° |
| 2026-04-29 19:27 | 50.56594 | 4.66721 | 6979 ft | 257 kts | 55° |
| 2026-04-29 19:27 | 50.57665 | 4.68990 | 7609 ft | 259 kts | 63° |
| 2026-04-29 19:28 | 50.58243 | 4.71641 | 8239 ft | 259 kts | 85° |
| 2026-04-29 19:28 | 50.58047 | 4.74416 | 8861 ft | 264 kts | 109° |
| 2026-04-29 19:28 | 50.57118 | 4.76932 | 9497 ft | 270 kts | 123° |
| 2026-04-29 19:28 | 50.56002 | 4.79333 | 10127 ft | 274 kts | 123° |
| 2026-04-29 19:29 | 50.54861 | 4.81763 | 10759 ft | 280 kts | 123° |
| 2026-04-29 19:29 | 50.53661 | 4.84317 | 10988 ft | 302 kts | 123° |
| 2026-04-29 19:29 | 50.52376 | 4.87059 | 11270 ft | 319 kts | 123° |
| 2026-04-29 19:29 | 50.51042 | 4.89896 | 11849 ft | 325 kts | 123° |
| 2026-04-29 19:30 | 50.49690 | 4.92774 | 12461 ft | 330 kts | 123° |
| 2026-04-29 19:30 | 50.48321 | 4.95694 | 13080 ft | 334 kts | 123° |
| 2026-04-29 19:30 | 50.46937 | 4.98651 | 13709 ft | 338 kts | 123° |
| 2026-04-29 19:30 | 50.45535 | 5.01639 | 14320 ft | 342 kts | 123° |
| 2026-04-29 19:31 | 50.44112 | 5.04662 | 14930 ft | 346 kts | 123° |
| 2026-04-29 19:31 | 50.42678 | 5.07708 | 15512 ft | 349 kts | 123° |
| 2026-04-29 19:31 | 50.41227 | 5.10788 | 16071 ft | 353 kts | 123° |
| 2026-04-29 19:31 | 50.39763 | 5.13894 | 16618 ft | 356 kts | 123° |
| 2026-04-29 19:32 | 50.38282 | 5.17031 | 17167 ft | 360 kts | 123° |
| 2026-04-29 19:32 | 50.36786 | 5.20193 | 17700 ft | 363 kts | 123° |
| 2026-04-29 19:32 | 50.35273 | 5.23388 | 18226 ft | 367 kts | 122° |
| 2026-04-29 19:32 | 50.33745 | 5.26612 | 18765 ft | 370 kts | 123° |
| 2026-04-29 19:33 | 50.32205 | 5.29856 | 19309 ft | 373 kts | 122° |
| 2026-04-29 19:33 | 50.30654 | 5.33121 | 19860 ft | 375 kts | 122° |
| 2026-04-29 19:33 | 50.29088 | 5.36404 | 20418 ft | 378 kts | 122° |
| 2026-04-29 19:33 | 50.27512 | 5.39705 | 20953 ft | 380 kts | 122° |
| 2026-04-29 19:34 | 50.25925 | 5.43025 | 21456 ft | 382 kts | 122° |
| 2026-04-29 19:34 | 50.24327 | 5.46365 | 21952 ft | 385 kts | 122° |
| 2026-04-29 19:34 | 50.22724 | 5.49725 | 22429 ft | 387 kts | 122° |
| 2026-04-29 19:34 | 50.21110 | 5.53106 | 22917 ft | 390 kts | 122° |
| 2026-04-29 19:35 | 50.19482 | 5.56504 | 23391 ft | 392 kts | 122° |
| 2026-04-29 19:35 | 50.17842 | 5.59918 | 23836 ft | 394 kts | 122° |
| 2026-04-29 19:35 | 50.16191 | 5.63350 | 24296 ft | 397 kts | 122° |
| 2026-04-29 19:35 | 50.15093 | 5.65633 | 24611 ft | 398 kts | 122° |
| 2026-04-29 19:36 | 50.12867 | 5.70260 | 25219 ft | 399 kts | 122° |
| 2026-04-29 19:36 | 50.11762 | 5.72551 | 25501 ft | 400 kts | 122° |
| 2026-04-29 19:36 | 50.10084 | 5.76023 | 25933 ft | 402 kts | 122° |
| 2026-04-29 19:36 | 50.08401 | 5.79500 | 26347 ft | 403 kts | 122° |
| 2026-04-29 19:37 | 50.06712 | 5.82983 | 26749 ft | 404 kts | 121° |
| 2026-04-29 19:37 | 50.05589 | 5.85293 | 27008 ft | 405 kts | 121° |
| 2026-04-29 19:37 | 50.03312 | 5.89977 | 27521 ft | 406 kts | 121° |
| 2026-04-29 19:37 | 50.01607 | 5.93483 | 27917 ft | 407 kts | 121° |
| 2026-04-29 19:38 | 49.99895 | 5.97000 | 28272 ft | 408 kts | 121° |
| 2026-04-29 19:38 | 49.98180 | 6.00523 | 28633 ft | 409 kts | 121° |
| 2026-04-29 19:38 | 49.96460 | 6.04055 | 28979 ft | 410 kts | 121° |
| 2026-04-29 19:38 | 49.94734 | 6.07591 | 29330 ft | 411 kts | 121° |
| 2026-04-29 19:39 | 49.93002 | 6.11133 | 29648 ft | 412 kts | 121° |
| 2026-04-29 19:39 | 49.91264 | 6.14682 | 29987 ft | 413 kts | 121° |
| 2026-04-29 19:39 | 49.89519 | 6.18235 | 30311 ft | 415 kts | 121° |
| 2026-04-29 19:39 | 49.87766 | 6.21800 | 30586 ft | 418 kts | 121° |
| 2026-04-29 19:40 | 49.85999 | 6.25389 | 30865 ft | 420 kts | 121° |
| 2026-04-29 19:40 | 49.84229 | 6.28984 | 31170 ft | 420 kts | 121° |
| 2026-04-29 19:40 | 49.82452 | 6.32589 | 31388 ft | 422 kts | 121° |
| 2026-04-29 19:40 | 49.80671 | 6.36192 | 31760 ft | 422 kts | 121° |
| 2026-04-29 19:41 | 49.78887 | 6.39796 | 32124 ft | 422 kts | 122° |
| 2026-04-29 19:41 | 49.77099 | 6.43402 | 32440 ft | 423 kts | 122° |
| 2026-04-29 19:41 | 49.75303 | 6.47017 | 32762 ft | 424 kts | 122° |
| 2026-04-29 19:41 | 49.73513 | 6.50639 | 33063 ft | 424 kts | 120° |
| 2026-04-29 19:42 | 49.71972 | 6.54496 | 33340 ft | 420 kts | 112° |
| 2026-04-29 19:42 | 49.71072 | 6.57140 | 33529 ft | 421 kts | 112° |
| 2026-04-29 19:42 | 49.69243 | 6.62506 | 33925 ft | 422 kts | 113° |
| 2026-04-29 19:42 | 49.67867 | 6.66517 | 34200 ft | 423 kts | 113° |
| 2026-04-29 19:43 | 49.66482 | 6.70542 | 34450 ft | 425 kts | 113° |
| 2026-04-29 19:43 | 49.65088 | 6.74579 | 34701 ft | 427 kts | 114° |
| 2026-04-29 19:43 | 49.63688 | 6.78623 | 34953 ft | 428 kts | 114° |
| 2026-04-29 19:43 | 49.62282 | 6.82684 | 35169 ft | 430 kts | 114° |
| 2026-04-29 19:44 | 49.60871 | 6.86753 | 35260 ft | 431 kts | 114° |
| 2026-04-29 19:44 | 49.58039 | 6.94902 | 35266 ft | 431 kts | 114° |
| 2026-04-29 19:45 | 49.55182 | 7.03104 | 35263 ft | 441 kts | 114° |
| 2026-04-29 19:45 | 49.52247 | 7.11494 | 35251 ft | 447 kts | 114° |
| 2026-04-29 19:46 | 49.49287 | 7.19928 | 35257 ft | 448 kts | 114° |
| 2026-04-29 19:46 | 49.46338 | 7.28314 | 35241 ft | 449 kts | 114° |
| 2026-04-29 19:47 | 49.43278 | 7.36681 | 35240 ft | 452 kts | 122° |
| 2026-04-29 19:47 | 49.39291 | 7.44198 | 35245 ft | 455 kts | 126° |
| 2026-04-29 19:48 | 49.35240 | 7.51653 | 35236 ft | 455 kts | 126° |
| 2026-04-29 19:48 | 49.31177 | 7.59095 | 35237 ft | 456 kts | 126° |
| 2026-04-29 19:49 | 49.27104 | 7.66543 | 35237 ft | 456 kts | 126° |
| 2026-04-29 19:49 | 49.23027 | 7.73984 | 35236 ft | 457 kts | 126° |
| 2026-04-29 19:50 | 49.18943 | 7.81429 | 35235 ft | 457 kts | 126° |
| 2026-04-29 19:50 | 49.14852 | 7.88872 | 35229 ft | 458 kts | 127° |
| 2026-04-29 19:51 | 49.10745 | 7.96309 | 35226 ft | 459 kts | 127° |
| 2026-04-29 19:51 | 49.06631 | 8.03750 | 35224 ft | 459 kts | 127° |
| 2026-04-29 19:52 | 49.02501 | 8.11186 | 35214 ft | 460 kts | 127° |
| 2026-04-29 19:52 | 48.98353 | 8.18633 | 35211 ft | 462 kts | 127° |
| 2026-04-29 19:53 | 48.94194 | 8.26094 | 35209 ft | 463 kts | 127° |
| 2026-04-29 19:53 | 48.90014 | 8.33562 | 35211 ft | 464 kts | 128° |
| 2026-04-29 19:54 | 48.83729 | 8.44730 | 35217 ft | 467 kts | 128° |
| 2026-04-29 19:54 | 48.79464 | 8.52273 | 35222 ft | 468 kts | 128° |
| 2026-04-29 19:55 | 48.75257 | 8.59719 | 35224 ft | 469 kts | 128° |
| 2026-04-29 19:55 | 48.71015 | 8.67222 | 35222 ft | 469 kts | 128° |
| 2026-04-29 19:56 | 48.66754 | 8.74707 | 35229 ft | 470 kts | 128° |
| 2026-04-29 19:56 | 48.62480 | 8.82197 | 35235 ft | 471 kts | 128° |
| 2026-04-29 19:57 | 48.58894 | 8.88471 | 35240 ft | 471 kts | 129° |
| 2026-04-29 19:57 | 48.53906 | 8.97174 | 35246 ft | 472 kts | 129° |
| 2026-04-29 19:58 | 48.49602 | 9.04656 | 35255 ft | 473 kts | 129° |
| 2026-04-29 19:58 | 48.45281 | 9.12138 | 35261 ft | 473 kts | 129° |
| 2026-04-29 19:59 | 48.40963 | 9.19606 | 35252 ft | 473 kts | 129° |
| 2026-04-29 19:59 | 48.36637 | 9.27060 | 35243 ft | 473 kts | 129° |
| 2026-04-29 20:00 | 48.32301 | 9.34512 | 35239 ft | 474 kts | 129° |
| 2026-04-29 20:00 | 48.27955 | 9.41965 | 35237 ft | 475 kts | 130° |
| 2026-04-29 20:01 | 48.23313 | 9.49015 | 35241 ft | 477 kts | 138° |
| 2026-04-29 20:01 | 48.18291 | 9.55521 | 35238 ft | 477 kts | 138° |
| 2026-04-29 20:02 | 48.13263 | 9.62028 | 35234 ft | 478 kts | 139° |
| 2026-04-29 20:02 | 48.09066 | 9.67436 | 35234 ft | 479 kts | 139° |
| 2026-04-29 20:03 | 48.03149 | 9.75037 | 35241 ft | 480 kts | 139° |
| 2026-04-29 20:03 | 47.98073 | 9.81555 | 35243 ft | 481 kts | 139° |
| 2026-04-29 20:04 | 47.92992 | 9.88064 | 35243 ft | 482 kts | 139° |
| 2026-04-29 20:04 | 47.87897 | 9.94561 | 35244 ft | 482 kts | 139° |
| 2026-04-29 20:05 | 47.83418 | 10.01912 | 35244 ft | 480 kts | 122° |
| 2026-04-29 20:05 | 47.80367 | 10.10690 | 35245 ft | 478 kts | 113° |
| 2026-04-29 20:06 | 47.77524 | 10.19621 | 35241 ft | 478 kts | 114° |
| 2026-04-29 20:06 | 47.74644 | 10.28540 | 35240 ft | 479 kts | 114° |
| 2026-04-29 20:07 | 47.71762 | 10.37469 | 35243 ft | 479 kts | 114° |
| 2026-04-29 20:07 | 47.68877 | 10.46403 | 35243 ft | 480 kts | 114° |
| 2026-04-29 20:08 | 47.66471 | 10.53825 | 35243 ft | 481 kts | 114° |
| 2026-04-29 20:08 | 47.63091 | 10.64209 | 35240 ft | 482 kts | 115° |
| 2026-04-29 20:09 | 47.60167 | 10.73157 | 35236 ft | 483 kts | 115° |
| 2026-04-29 20:09 | 47.57228 | 10.82112 | 35236 ft | 484 kts | 115° |
| 2026-04-29 20:10 | 47.54270 | 10.91072 | 35239 ft | 484 kts | 115° |
| 2026-04-29 20:10 | 47.51314 | 11.00042 | 35244 ft | 485 kts | 115° |
| 2026-04-29 20:11 | 47.48353 | 11.09016 | 35243 ft | 486 kts | 115° |
| 2026-04-29 20:11 | 47.45368 | 11.17988 | 35243 ft | 487 kts | 115° |
| 2026-04-29 20:12 | 47.42377 | 11.26952 | 35244 ft | 487 kts | 115° |
| 2026-04-29 20:12 | 47.39373 | 11.35917 | 35241 ft | 487 kts | 115° |
| 2026-04-29 20:13 | 47.37874 | 11.40382 | 34954 ft | 485 kts | 116° |
| 2026-04-29 20:13 | 47.36885 | 11.43324 | 34634 ft | 482 kts | 115° |
| 2026-04-29 20:13 | 47.34893 | 11.49237 | 33855 ft | 481 kts | 116° |
| 2026-04-29 20:13 | 47.33403 | 11.53653 | 33361 ft | 479 kts | 116° |
| 2026-04-29 20:14 | 47.31917 | 11.58055 | 33179 ft | 480 kts | 116° |
| 2026-04-29 20:14 | 47.30423 | 11.62466 | 33231 ft | 482 kts | 116° |
| 2026-04-29 20:14 | 47.27428 | 11.71310 | 33229 ft | 482 kts | 116° |
| 2026-04-29 20:15 | 47.24421 | 11.80136 | 33221 ft | 482 kts | 116° |
| 2026-04-29 20:15 | 47.21572 | 11.89070 | 33221 ft | 482 kts | 108° |
| 2026-04-29 20:16 | 47.20107 | 11.98637 | 33222 ft | 480 kts | 97° |
| 2026-04-29 20:16 | 47.18982 | 12.08317 | 33222 ft | 481 kts | 98° |
| 2026-04-29 20:17 | 47.17837 | 12.18005 | 33216 ft | 481 kts | 98° |
| 2026-04-29 20:17 | 47.16677 | 12.27701 | 33228 ft | 482 kts | 98° |
| 2026-04-29 20:18 | 47.15506 | 12.37415 | 33231 ft | 483 kts | 98° |
| 2026-04-29 20:18 | 47.14327 | 12.47148 | 33231 ft | 484 kts | 98° |
| 2026-04-29 20:19 | 47.13137 | 12.56874 | 33235 ft | 485 kts | 98° |
| 2026-04-29 20:19 | 47.11941 | 12.66623 | 33237 ft | 486 kts | 98° |
| 2026-04-29 20:20 | 47.10739 | 12.76315 | 33234 ft | 486 kts | 98° |
| 2026-04-29 20:20 | 47.09506 | 12.86079 | 33235 ft | 487 kts | 99° |
| 2026-04-29 20:21 | 47.08271 | 12.95856 | 33240 ft | 487 kts | 98° |
| 2026-04-29 20:21 | 47.07040 | 13.05635 | 33243 ft | 488 kts | 99° |
| 2026-04-29 20:22 | 47.05801 | 13.15414 | 33255 ft | 488 kts | 99° |
| 2026-04-29 20:22 | 47.04544 | 13.25208 | 33269 ft | 489 kts | 99° |
| 2026-04-29 20:23 | 47.03271 | 13.35005 | 33271 ft | 489 kts | 99° |
| 2026-04-29 20:23 | 47.02211 | 13.43149 | 33270 ft | 490 kts | 99° |
| 2026-04-29 20:24 | 47.00925 | 13.52957 | 33272 ft | 490 kts | 99° |
| 2026-04-29 20:24 | 46.99636 | 13.62767 | 33272 ft | 491 kts | 99° |
| 2026-04-29 20:25 | 46.98331 | 13.72587 | 33275 ft | 492 kts | 99° |
| 2026-04-29 20:25 | 46.97012 | 13.82415 | 33281 ft | 492 kts | 100° |
| 2026-04-29 20:26 | 46.95691 | 13.92246 | 33285 ft | 493 kts | 99° |
| 2026-04-29 20:26 | 46.94359 | 14.02083 | 33279 ft | 493 kts | 100° |
| 2026-04-29 20:27 | 46.93228 | 14.10326 | 33271 ft | 494 kts | 100° |
| 2026-04-29 20:27 | 46.91651 | 14.21787 | 33275 ft | 495 kts | 100° |
| 2026-04-29 20:28 | 46.90287 | 14.31660 | 33278 ft | 496 kts | 100° |
| 2026-04-29 20:28 | 46.88912 | 14.41539 | 33281 ft | 496 kts | 100° |
| 2026-04-29 20:29 | 46.87525 | 14.51428 | 33288 ft | 497 kts | 100° |
| 2026-04-29 20:29 | 46.86127 | 14.61323 | 33276 ft | 498 kts | 100° |
| 2026-04-29 20:30 | 46.85424 | 14.66271 | 32905 ft | 496 kts | 101° |
| 2026-04-29 20:30 | 46.84719 | 14.71206 | 32255 ft | 495 kts | 101° |
| 2026-04-29 20:30 | 46.84016 | 14.76116 | 31650 ft | 494 kts | 101° |
| 2026-04-29 20:30 | 46.83313 | 14.81015 | 31045 ft | 492 kts | 101° |
| 2026-04-29 20:31 | 46.82615 | 14.85890 | 30439 ft | 490 kts | 101° |
| 2026-04-29 20:31 | 46.81917 | 14.90751 | 29823 ft | 488 kts | 101° |
| 2026-04-29 20:31 | 46.81220 | 14.95587 | 29221 ft | 486 kts | 101° |
| 2026-04-29 20:31 | 46.80519 | 15.00404 | 28608 ft | 484 kts | 101° |
| 2026-04-29 20:32 | 46.79820 | 15.05189 | 28013 ft | 481 kts | 101° |
| 2026-04-29 20:32 | 46.79124 | 15.09942 | 27422 ft | 478 kts | 101° |
| 2026-04-29 20:32 | 46.78431 | 15.14667 | 26841 ft | 475 kts | 101° |
| 2026-04-29 20:32 | 46.77739 | 15.19357 | 26267 ft | 471 kts | 101° |
| 2026-04-29 20:33 | 46.77050 | 15.24009 | 25715 ft | 467 kts | 101° |
| 2026-04-29 20:33 | 46.76368 | 15.28616 | 25178 ft | 463 kts | 101° |
| 2026-04-29 20:33 | 46.75693 | 15.33184 | 24660 ft | 459 kts | 101° |
| 2026-04-29 20:33 | 46.75020 | 15.37719 | 24139 ft | 456 kts | 101° |
| 2026-04-29 20:34 | 46.74350 | 15.42220 | 23619 ft | 453 kts | 102° |
| 2026-04-29 20:34 | 46.73681 | 15.46684 | 23108 ft | 449 kts | 102° |
| 2026-04-29 20:34 | 46.73009 | 15.51120 | 22605 ft | 447 kts | 102° |
| 2026-04-29 20:34 | 46.72340 | 15.55525 | 22075 ft | 444 kts | 102° |
| 2026-04-29 20:35 | 46.71431 | 15.59796 | 21653 ft | 439 kts | 114° |
| 2026-04-29 20:35 | 46.69955 | 15.63660 | 21155 ft | 434 kts | 128° |
| 2026-04-29 20:35 | 46.67992 | 15.66949 | 20598 ft | 430 kts | 140° |
| 2026-04-29 20:35 | 46.65627 | 15.69512 | 20300 ft | 417 kts | 153° |
| 2026-04-29 20:36 | 46.63142 | 15.71588 | 19530 ft | 409 kts | 154° |
| 2026-04-29 20:36 | 46.60722 | 15.73571 | 19062 ft | 403 kts | 154° |
| 2026-04-29 20:36 | 46.58286 | 15.75549 | 18572 ft | 400 kts | 154° |
| 2026-04-29 20:36 | 46.55863 | 15.77510 | 18075 ft | 397 kts | 154° |
| 2026-04-29 20:37 | 46.53459 | 15.79452 | 17585 ft | 394 kts | 154° |
| 2026-04-29 20:37 | 46.51074 | 15.81381 | 17091 ft | 391 kts | 154° |
| 2026-04-29 20:37 | 46.48710 | 15.83292 | 16600 ft | 387 kts | 153° |
| 2026-04-29 20:37 | 46.46367 | 15.85189 | 16114 ft | 384 kts | 153° |
| 2026-04-29 20:38 | 46.44042 | 15.87074 | 15624 ft | 381 kts | 153° |
| 2026-04-29 20:38 | 46.41753 | 15.88930 | 15419 ft | 370 kts | 153° |
| 2026-04-29 20:38 | 46.39550 | 15.90715 | 15302 ft | 357 kts | 153° |
| 2026-04-29 20:38 | 46.37413 | 15.92438 | 15148 ft | 346 kts | 153° |
| 2026-04-29 20:39 | 46.35341 | 15.94104 | 14998 ft | 336 kts | 153° |
| 2026-04-29 20:39 | 46.33323 | 15.95724 | 14842 ft | 329 kts | 153° |
| 2026-04-29 20:39 | 46.31336 | 15.97331 | 14708 ft | 327 kts | 150° |
| 2026-04-29 20:39 | 46.29509 | 15.99306 | 14343 ft | 331 kts | 142° |
| 2026-04-29 20:40 | 46.27706 | 16.01435 | 13653 ft | 340 kts | 142° |
| 2026-04-29 20:40 | 46.25878 | 16.03626 | 13152 ft | 342 kts | 141° |
| 2026-04-29 20:40 | 46.24052 | 16.05824 | 12699 ft | 341 kts | 141° |
| 2026-04-29 20:40 | 46.22228 | 16.08014 | 12247 ft | 341 kts | 141° |
| 2026-04-29 20:41 | 46.20401 | 16.10197 | 11797 ft | 341 kts | 141° |
| 2026-04-29 20:41 | 46.18577 | 16.12370 | 11345 ft | 340 kts | 140° |
| 2026-04-29 20:41 | 46.16756 | 16.14532 | 10902 ft | 338 kts | 140° |
| 2026-04-29 20:41 | 46.14944 | 16.16679 | 10461 ft | 334 kts | 140° |
| 2026-04-29 20:42 | 46.13185 | 16.18757 | 10031 ft | 320 kts | 140° |
| 2026-04-29 20:42 | 46.11498 | 16.20751 | 9612 ft | 307 kts | 139° |
| 2026-04-29 20:42 | 46.09876 | 16.22664 | 9227 ft | 296 kts | 139° |
| 2026-04-29 20:42 | 46.08321 | 16.24501 | 8856 ft | 293 kts | 138° |
| 2026-04-29 20:43 | 46.06746 | 16.26365 | 8467 ft | 294 kts | 138° |
| 2026-04-29 20:43 | 46.05165 | 16.28237 | 8085 ft | 294 kts | 138° |
| 2026-04-29 20:43 | 46.03582 | 16.30105 | 7704 ft | 294 kts | 138° |
| 2026-04-29 20:43 | 46.02003 | 16.31978 | 7307 ft | 295 kts | 136° |
| 2026-04-29 20:44 | 46.00481 | 16.33919 | 6891 ft | 289 kts | 134° |
| 2026-04-29 20:44 | 45.99027 | 16.35863 | 6488 ft | 281 kts | 134° |
| 2026-04-29 20:44 | 45.97595 | 16.37694 | 6093 ft | 272 kts | 144° |
| 2026-04-29 20:44 | 45.95829 | 16.38488 | 5721 ft | 268 kts | 180° |
| 2026-04-29 20:45 | 45.94100 | 16.37703 | 5354 ft | 260 kts | 214° |
| 2026-04-29 20:45 | 45.92780 | 16.36019 | 5002 ft | 250 kts | 236° |
| 2026-04-29 20:45 | 45.91915 | 16.33901 | 4686 ft | 246 kts | 237° |
| 2026-04-29 20:45 | 45.90813 | 16.32046 | 4615 ft | 245 kts | 226° |
| 2026-04-29 20:46 | 45.89625 | 16.30292 | 4410 ft | 244 kts | 227° |
| 2026-04-29 20:46 | 45.88464 | 16.28536 | 4111 ft | 242 kts | 227° |
| 2026-04-29 20:46 | 45.87320 | 16.26780 | 3800 ft | 240 kts | 227° |
| 2026-04-29 20:46 | 45.86181 | 16.25034 | 3473 ft | 238 kts | 227° |
| 2026-04-29 20:47 | 45.85072 | 16.23338 | 3169 ft | 228 kts | 227° |
| 2026-04-29 20:47 | 45.84010 | 16.21712 | 2873 ft | 219 kts | 227° |
| 2026-04-29 20:47 | 45.82989 | 16.20149 | 2588 ft | 211 kts | 226° |
| 2026-04-29 20:47 | 45.82016 | 16.18661 | 2345 ft | 199 kts | 226° |
| 2026-04-29 20:48 | 45.81090 | 16.17244 | 2061 ft | 190 kts | 225° |
| 2026-04-29 20:48 | 45.80192 | 16.15872 | 1806 ft | 186 kts | 225° |
| 2026-04-29 20:48 | 45.79343 | 16.14575 | 1583 ft | 169 kts | 227° |
| 2026-04-29 20:48 | 45.78554 | 16.13373 | 1356 ft | 163 kts | 228° |
| 2026-04-29 20:49 | 45.77788 | 16.12205 | 1143 ft | 160 kts | 227° |
| 2026-04-29 20:49 | 45.77046 | 16.11069 | 919 ft | 149 kts | 227° |
| 2026-04-29 20:49 | 45.76363 | 16.10021 | 688 ft | 140 kts | 228° |
| 2026-04-29 20:49 | 45.75697 | 16.09013 | 559 ft | 139 kts | 227° |
| 2026-04-29 20:50 | 45.75037 | 16.08011 | 380 ft | 138 kts | 227° |
| 2026-04-29 20:50 | 45.74483 | 16.07168 | 358 ft | 81 kts | 227° |
| 2026-04-29 20:50 | 45.74243 | 16.06803 | 359 ft | 38 kts | 227° |
| 2026-04-29 20:50 | 45.74066 | 16.06533 | 361 ft | 36 kts | 227° |
| 2026-04-29 20:51 | 45.73911 | 16.06297 | 365 ft | 22 kts | 226° |
| 2026-04-29 20:51 | 45.73823 | 16.06288 | 366 ft | 16 kts | 137° |
| 2026-04-29 20:51 | 45.73753 | 16.06382 | 362 ft | 14 kts | 127° |
| 2026-04-29 20:51 | 45.73791 | 16.06508 | 359 ft | 16 kts | 46° |
| 2026-04-29 20:52 | 45.73875 | 16.06636 | 366 ft | 19 kts | 47° |
| 2026-04-29 20:52 | 45.73973 | 16.06785 | 365 ft | 22 kts | 47° |
| 2026-04-29 20:52 | 45.74084 | 16.06954 | 359 ft | 25 kts | 46° |
| 2026-04-29 20:52 | 45.74177 | 16.07097 | 363 ft | 14 kts | 47° |
| 2026-04-29 20:53 | 45.74216 | 16.07207 | 366 ft | 14 kts | 108° |
| 2026-04-29 20:53 | 45.74139 | 16.07310 | 363 ft | 17 kts | 137° |
| 2026-04-29 20:53 | 45.74066 | 16.07408 | 361 ft | 12 kts | 130° |
| 2026-04-29 20:53 | 45.74093 | 16.07516 | 361 ft | 13 kts | 45° |
| 2026-04-29 20:54 | 45.74182 | 16.07650 | 359 ft | 4 kts | 47° |
| 2026-04-29 20:54 | 45.74178 | 16.07689 | 359 ft | 6 kts | 137° |
| 2026-04-29 20:54 | 45.74141 | 16.07736 | 362 ft | 6 kts | 137° |
| 2026-04-29 20:55 | 45.74127 | 16.07754 | 359 ft | 1 kts | 137° |
| 2026-04-29 20:55 | 45.74125 | 16.07757 | 359 ft | 0 kts | 137° |